Time;durP1;ratioP1;P1;durP2;ratioP2;P2;SDS_P1;SDS_P2;PMS_P1;PMS_P2;Temp;Humidity;BMP_temperature;BMP_pressure;BME280_temperature;BME280_humidity;BME280_pressure;Samples;Min_cycle;Max_cycle;Signal;HPM_P1;HPM_P2
2022/02/25 12:34:45;;;;;;;3.53;1.10;;;;;;;6.56;69.30;100729.94;5313613;54;46720;-72
2022/02/25 12:40:06;;;;;;;10.57;2.27;;;;;;;6.42;68.62;100726.77;5141760;56;1130602;-72
2022/02/25 12:45:12;;;;;;;2.53;1.60;;;;;;;6.33;70.60;100736.03;5080922;56;1136616;-70
2022/02/25 12:50:18;;;;;;;4.00;1.10;;;;;;;6.34;71.09;100736.41;5053978;56;1134701;-71
2022/02/25 12:55:24;;;;;;;9.77;1.70;;;;;;;6.31;70.97;100732.64;5019674;56;1134601;-71
2022/02/25 13:00:30;;;;;;;3.17;1.27;;;;;;;6.43;71.55;100736.81;4986820;57;1134572;-70
2022/02/25 13:05:37;;;;;;;8.63;1.57;;;;;;;6.61;70.95;100735.30;5052532;57;1134549;-71
2022/02/25 13:10:43;;;;;;;7.80;3.27;;;;;;;6.97;70.60;100732.31;5069129;56;1134778;-71
2022/02/25 13:15:49;;;;;;;12.73;3.13;;;;;;;7.10;67.12;100740.77;5068357;56;1134755;-72
2022/02/25 13:21:05;;;;;;;4.93;1.63;;;;;;;7.05;68.62;100746.30;5088372;56;1136731;-70
2022/02/25 13:26:11;;;;;;;6.17;2.62;;;;;;;7.05;68.68;100731.37;5057955;57;1134705;-70
2022/02/25 13:31:28;;;;;;;3.80;1.20;;;;;;;6.98;68.97;100734.47;5036380;57;1134677;-71
2022/02/25 13:36:36;;;;;;;7.47;1.50;;;;;;;6.90;68.00;100739.31;5036888;57;1134662;-70
2022/02/25 13:41:42;;;;;;;6.58;2.10;;;;;;;6.78;69.10;100741.36;5036583;57;1134643;-72
2022/02/25 13:46:51;;;;;;;7.90;1.73;;;;;;;6.66;70.39;100737.67;4907093;56;1134607;-70
2022/02/25 13:52:22;;;;;;;7.67;1.40;;;;;;;6.59;70.10;100741.56;5057567;56;1135300;-72
2022/02/25 13:57:35;;;;;;;12.40;2.53;;;;;;;6.57;69.73;100747.41;5050907;56;1136203;-70
2022/02/25 14:02:43;;;;;;;2.90;0.90;;;;;;;6.49;70.46;100745.20;4892031;56;1136990;-70
2022/02/25 14:07:56;;;;;;;8.87;2.07;;;;;;;6.45;68.72;100744.98;5034226;56;1134982;-71
2022/02/25 14:13:15;;;;;;;3.67;1.20;;;;;;;6.38;68.85;100742.34;5034153;56;1135190;-72
2022/02/25 14:18:19;;;;;;;8.97;3.17;;;;;;;6.44;70.55;100743.76;5083422;55;1134775;-71
2022/02/25 14:23:32;;;;;;;12.80;2.35;;;;;;;6.49;68.32;100752.23;5072048;56;1134907;-72
2022/02/25 14:28:39;;;;;;;1.77;1.00;;;;;;;6.52;68.51;100756.86;5037397;56;1146455;-71
2022/02/25 14:33:49;;;;;;;4.60;1.03;;;;;;;6.47;68.68;100753.63;5058767;56;1135051;-71
2022/02/25 14:38:58;;;;;;;5.83;1.70;;;;;;;6.46;68.82;100750.62;5101341;56;1134871;-70
2022/02/25 14:44:13;;;;;;;4.70;1.67;;;;;;;6.45;68.80;100750.24;5085685;55;1134650;-71
2022/02/25 14:49:21;;;;;;;7.30;1.70;;;;;;;6.44;68.88;100765.63;5095672;55;1134695;-72
2022/02/25 14:54:27;;;;;;;5.07;1.50;;;;;;;6.41;69.28;100766.28;5078097;55;1138112;-72
2022/02/25 14:59:34;;;;;;;14.68;10.43;;;;;;;6.39;70.13;100774.72;5057587;56;1134716;-72
2022/02/25 15:04:41;;;;;;;150.18;92.05;;;;;;;6.32;69.53;100780.30;5109230;55;1138732;-73
2022/02/25 15:09:48;;;;;;;60.97;26.43;;;;;;;6.29;69.79;100781.78;5100593;55;1140761;-71
2022/02/25 15:14:54;;;;;;;201.70;82.50;;;;;;;6.26;68.48;100787.20;5083149;55;1138708;-73
2022/02/25 17:29:02;;;;;;;31.80;7.77;;;;;;;5.51;76.66;100900.55;5164642;54;46841;-71
2022/02/25 17:34:08;;;;;;;43.57;11.80;;;;;;;5.45;76.86;100913.14;5045529;57;1132697;-71
2022/02/25 17:39:14;;;;;;;19.33;4.63;;;;;;;5.38;77.31;100922.23;5073586;56;1138813;-68
2022/02/25 17:44:20;;;;;;;42.10;8.50;;;;;;;5.37;78.51;100933.17;5017360;57;1136723;-69
2022/02/25 17:49:26;;;;;;;46.70;11.33;;;;;;;5.25;81.99;100947.75;5003784;55;1137202;-72
2022/02/25 17:54:32;;;;;;;33.47;7.80;;;;;;;5.07;84.76;100954.33;5070509;56;1138770;-73
2022/02/25 17:59:37;;;;;;;37.33;6.93;;;;;;;4.85;88.75;100961.92;5137250;55;1136998;-74
2022/02/25 18:04:43;;;;;;;881.17;412.05;;;;;;;4.70;91.01;100961.33;5116316;55;1136860;-72
2022/02/25 18:09:49;;;;;;;393.97;105.27;;;;;;;4.65;90.56;100967.23;5116151;56;1143205;-73
2022/02/25 18:14:55;;;;;;;541.83;243.57;;;;;;;4.57;92.07;100964.98;5111674;56;1143203;-73
2022/02/25 18:20:01;;;;;;;139.80;58.47;;;;;;;4.55;90.60;100981.22;5117498;55;1143069;-68
2022/02/25 18:25:08;;;;;;;90.43;38.77;;;;;;;4.57;91.05;100979.37;5093423;56;1140920;-70
2022/02/25 18:30:14;;;;;;;66.00;18.97;;;;;;;4.56;92.44;100988.16;5119807;56;1139078;-74
2022/02/25 18:35:20;;;;;;;30.88;8.23;;;;;;;4.58;91.03;100994.64;5129418;55;1138920;-70
2022/02/25 18:40:25;;;;;;;41.00;12.70;;;;;;;4.63;91.07;101003.58;5140062;55;1136802;-68
2022/02/25 18:45:31;;;;;;;17.43;4.87;;;;;;;4.59;91.76;101009.41;5114061;55;1138946;-72
2022/02/25 18:50:37;;;;;;;20.87;4.73;;;;;;;4.59;91.76;101009.41;5099810;55;1136949;-68
2022/02/25 18:55:43;;;;;;;35.70;12.77;;;;;;;4.62;91.20;101025.45;5119749;55;1136817;-74
2022/02/25 19:00:52;;;;;;;19.77;9.57;;;;;;;4.63;91.26;101022.77;5122873;55;1138871;-72
2022/02/25 19:05:59;;;;;;;12.77;5.67;;;;;;;4.67;91.99;101032.20;5129864;55;1136595;-69
2022/02/25 19:11:06;;;;;;;15.23;7.27;;;;;;;4.67;91.99;101032.20;5121522;56;1136797;-70
2022/02/25 19:16:11;;;;;;;21.00;7.87;;;;;;;4.62;92.14;101021.06;5134624;55;1136727;-69
2022/02/25 19:21:17;;;;;;;32.53;13.60;;;;;;;4.65;91.54;101026.63;5083912;56;1136911;-69
2022/02/25 19:26:23;;;;;;;34.23;9.93;;;;;;;4.64;91.48;101028.40;5122633;55;1138696;-67
2022/02/25 19:31:28;;;;;;;30.87;10.33;;;;;;;4.63;91.64;101024.08;5109572;55;1136743;-75
2022/02/25 19:36:35;;;;;;;13.67;4.30;;;;;;;4.61;91.70;101028.53;5106985;55;1142338;-72
2022/02/25 19:41:41;;;;;;;10.55;4.10;;;;;;;4.60;91.74;101039.47;5142036;55;1136649;-69
2022/02/25 19:46:47;;;;;;;11.35;3.83;;;;;;;4.56;91.77;101042.31;5142512;55;1136621;-71
2022/02/25 19:51:52;;;;;;;16.43;7.63;;;;;;;4.52;92.79;101049.45;5107470;55;1136675;-74
2022/02/25 19:56:58;;;;;;;16.07;6.23;;;;;;;4.52;93.03;101054.69;5067426;55;1136795;-71
2022/02/25 20:02:03;;;;;;;15.23;5.97;;;;;;;4.49;92.71;101061.83;5094521;55;1136663;-71
2022/02/25 20:07:09;;;;;;;11.77;3.93;;;;;;;4.41;93.66;101067.41;5086968;55;1136601;-74
2022/02/25 20:12:16;;;;;;;24.37;8.17;;;;;;;4.36;93.79;101064.59;5134784;55;1136957;-71
2022/02/25 20:17:22;;;;;;;27.60;9.73;;;;;;;4.29;93.64;101069.22;5135052;55;1136778;-72
2022/02/25 20:22:28;;;;;;;25.43;7.47;;;;;;;4.28;94.00;101077.99;5099491;55;1136994;-71
2022/02/25 20:27:34;;;;;;;24.47;6.83;;;;;;;4.24;93.84;101077.75;5057416;55;1136823;-70
2022/02/25 20:32:41;;;;;;;12.82;3.83;;;;;;;4.23;94.03;101085.21;5149586;55;1136812;-73
2022/02/25 20:37:49;;;;;;;13.03;4.15;;;;;;;4.21;94.00;101083.11;5084315;55;1137013;-69
2022/02/25 20:42:54;;;;;;;210.33;109.13;;;;;;;4.17;95.00;101089.38;5156336;55;1136896;-71
2022/02/25 20:48:00;;;;;;;52.93;21.77;;;;;;;4.17;95.47;101086.77;5113740;56;1143082;-71
2022/02/25 20:53:06;;;;;;;21.70;6.77;;;;;;;4.09;95.58;101094.11;5086596;57;1139088;-69
2022/02/25 20:58:12;;;;;;;21.02;6.87;;;;;;;4.09;95.58;101094.11;5127457;55;1136927;-73
2022/02/25 21:03:18;;;;;;;22.47;8.20;;;;;;;4.16;95.55;101111.23;5150935;55;1136963;-73
2022/02/25 21:08:24;;;;;;;9.10;3.90;;;;;;;4.17;95.34;101108.56;5171181;55;1137003;-71
2022/02/25 21:13:30;;;;;;;7.33;3.77;;;;;;;4.15;96.21;101113.46;5176587;56;1134865;-74
2022/02/25 21:18:36;;;;;;;17.47;6.83;;;;;;;4.13;96.22;101111.36;5172766;56;1134670;-74
2022/02/25 21:23:41;;;;;;;14.03;5.20;;;;;;;4.12;96.97;101118.85;5122153;55;1136875;-70
2022/02/25 21:28:47;;;;;;;8.00;3.43;;;;;;;4.07;97.07;101115.56;5136083;55;1136911;-73
2022/02/25 21:33:54;;;;;;;20.80;6.93;;;;;;;4.04;98.38;101118.30;5177235;55;1134858;-70
2022/02/25 21:39:01;;;;;;;21.77;8.27;;;;;;;4.02;98.39;101121.43;5154524;55;1136754;-72
2022/02/25 21:44:07;;;;;;;11.23;4.83;;;;;;;4.01;98.63;101115.80;5090085;56;1136843;-72
2022/02/25 21:49:13;;;;;;;19.60;5.72;;;;;;;4.04;99.16;101118.30;5146476;55;1136806;-71
2022/02/25 21:54:19;;;;;;;16.27;5.70;;;;;;;4.02;99.07;101119.66;5080536;56;1137013;-71
2022/02/25 21:59:26;;;;;;;20.30;5.03;;;;;;;4.00;99.09;101113.64;5153135;55;1137113;-71
2022/02/25 22:04:31;;;;;;;18.70;6.67;;;;;;;3.99;100.00;101125.48;5116442;56;1137085;-70
2022/02/25 22:09:38;;;;;;;17.40;7.85;;;;;;;3.99;100.00;101137.25;5087551;55;1139105;-71
2022/02/25 22:14:43;;;;;;;14.55;6.95;;;;;;;3.96;100.00;101137.41;5137867;56;1138831;-71
2022/02/25 22:19:49;;;;;;;14.70;6.03;;;;;;;3.96;100.00;101137.41;5123861;55;1138970;-70
2022/02/25 22:24:58;;;;;;;7.90;4.07;;;;;;;3.94;100.00;101147.08;5092077;55;1138808;-71
2022/02/25 22:30:02;;;;;;;8.77;3.83;;;;;;;3.94;100.00;101147.92;5091782;56;1136634;-70
2022/02/25 22:35:09;;;;;;;14.43;6.87;;;;;;;3.94;100.00;101158.85;5082421;55;1137021;-70
2022/02/25 22:40:18;;;;;;;16.50;5.83;;;;;;;3.93;100.00;101162.37;5058021;55;1139254;-70
2022/02/25 22:45:24;;;;;;;12.93;5.27;;;;;;;3.93;100.00;101173.70;5057657;55;1139137;-70
2022/02/25 23:01:18;;;;;;;9.73;4.90;;;;;;;3.93;100.00;101178.08;5058167;54;1136705;-70
2022/02/25 23:11:48;;;;;;;16.75;6.90;;;;;;;3.85;100.00;101177.06;5142593;55;1138749;-70
2022/02/25 23:16:54;;;;;;;18.63;6.30;;;;;;;3.82;100.00;101185.02;5142684;55;1138976;-70
2022/02/25 23:22:06;;;;;;;10.53;4.90;;;;;;;3.85;100.00;101192.30;5134720;55;1139030;-70
2022/02/25 23:27:09;;;;;;;9.75;4.33;;;;;;;3.85;100.00;101199.30;5130237;55;1138921;-70
2022/02/25 23:32:15;;;;;;;12.33;4.17;;;;;;;3.84;100.00;101199.75;5131503;55;1136726;-70
2022/02/25 23:37:20;;;;;;;7.60;4.23;;;;;;;3.85;100.00;101209.31;5141479;55;1139502;-71
2022/02/25 23:42:27;;;;;;;13.50;5.10;;;;;;;3.87;100.00;101211.88;5142317;55;1136596;-70
2022/02/25 23:47:33;;;;;;;8.93;4.23;;;;;;;3.87;100.00;101216.65;5142210;55;1138754;-70
2022/02/25 23:52:40;;;;;;;8.53;4.37;;;;;;;3.85;100.00;101232.00;5142422;55;1136735;-70
2022/02/25 23:57:45;;;;;;;9.30;4.63;;;;;;;3.82;100.00;101230.36;5142472;55;1136822;-70
